sensor_id;sensor_type;location;lat;lon;timestamp;P1;durP1;ratioP1;P2;durP2;ratioP2
53931;SDS011;39844;52.496;13.482;2023-11-19T00:01:09;3.43;;;2.87;;
53931;SDS011;39844;52.496;13.482;2023-11-19T00:03:35;2.97;;;2.40;;
53931;SDS011;39844;52.496;13.482;2023-11-19T00:06:00;2.37;;;2.27;;
53931;SDS011;39844;52.496;13.482;2023-11-19T00:08:26;2.57;;;2.40;;
53931;SDS011;39844;52.496;13.482;2023-11-19T00:10:51;2.90;;;2.70;;
53931;SDS011;39844;52.496;13.482;2023-11-19T00:13:16;3.03;;;2.40;;
53931;SDS011;39844;52.496;13.482;2023-11-19T00:15:42;2.30;;;2.10;;
53931;SDS011;39844;52.496;13.482;2023-11-19T00:18:07;3.33;;;2.40;;
53931;SDS011;39844;52.496;13.482;2023-11-19T00:20:32;2.40;;;2.13;;
53931;SDS011;39844;52.496;13.482;2023-11-19T00:22:58;2.60;;;2.40;;
53931;SDS011;39844;52.496;13.482;2023-11-19T00:25:23;2.90;;;2.70;;
53931;SDS011;39844;52.496;13.482;2023-11-19T00:27:48;2.93;;;2.50;;
53931;SDS011;39844;52.496;13.482;2023-11-19T00:30:14;2.67;;;2.47;;
53931;SDS011;39844;52.496;13.482;2023-11-19T00:32:40;2.50;;;2.30;;
53931;SDS011;39844;52.496;13.482;2023-11-19T00:35:06;3.63;;;2.10;;
53931;SDS011;39844;52.496;13.482;2023-11-19T00:37:32;2.03;;;1.93;;
53931;SDS011;39844;52.496;13.482;2023-11-19T00:39:57;3.27;;;2.97;;
53931;SDS011;39844;52.496;13.482;2023-11-19T00:42:23;2.67;;;2.47;;
53931;SDS011;39844;52.496;13.482;2023-11-19T00:44:48;3.03;;;2.73;;
53931;SDS011;39844;52.496;13.482;2023-11-19T00:47:13;2.77;;;2.57;;
53931;SDS011;39844;52.496;13.482;2023-11-19T00:49:39;2.43;;;2.23;;
53931;SDS011;39844;52.496;13.482;2023-11-19T00:52:04;2.60;;;2.40;;
53931;SDS011;39844;52.496;13.482;2023-11-19T00:54:29;2.43;;;2.07;;
53931;SDS011;39844;52.496;13.482;2023-11-19T00:56:55;2.30;;;2.20;;
53931;SDS011;39844;52.496;13.482;2023-11-19T00:59:20;2.67;;;2.47;;
53931;SDS011;39844;52.496;13.482;2023-11-19T01:01:45;2.33;;;2.13;;
53931;SDS011;39844;52.496;13.482;2023-11-19T01:04:11;2.37;;;2.17;;
53931;SDS011;39844;52.496;13.482;2023-11-19T01:06:36;2.23;;;2.03;;
53931;SDS011;39844;52.496;13.482;2023-11-19T01:09:01;2.47;;;2.27;;
53931;SDS011;39844;52.496;13.482;2023-11-19T01:11:27;2.30;;;2.13;;
53931;SDS011;39844;52.496;13.482;2023-11-19T01:13:52;2.37;;;2.20;;
53931;SDS011;39844;52.496;13.482;2023-11-19T01:16:18;2.50;;;2.30;;
53931;SDS011;39844;52.496;13.482;2023-11-19T01:18:43;2.20;;;2.10;;
53931;SDS011;39844;52.496;13.482;2023-11-19T01:21:08;4.27;;;2.10;;
53931;SDS011;39844;52.496;13.482;2023-11-19T01:23:34;2.87;;;2.60;;
53931;SDS011;39844;52.496;13.482;2023-11-19T01:26:00;4.03;;;2.27;;
53931;SDS011;39844;52.496;13.482;2023-11-19T01:28:25;3.70;;;2.80;;
53931;SDS011;39844;52.496;13.482;2023-11-19T01:30:51;5.87;;;2.60;;
53931;SDS011;39844;52.496;13.482;2023-11-19T01:33:16;2.80;;;2.53;;
53931;SDS011;39844;52.496;13.482;2023-11-19T01:35:42;2.23;;;2.10;;
53931;SDS011;39844;52.496;13.482;2023-11-19T01:38:07;2.50;;;2.30;;
53931;SDS011;39844;52.496;13.482;2023-11-19T01:40:32;2.53;;;2.10;;
53931;SDS011;39844;52.496;13.482;2023-11-19T01:42:58;3.30;;;2.37;;
53931;SDS011;39844;52.496;13.482;2023-11-19T01:45:32;3.40;;;2.70;;
53931;SDS011;39844;52.496;13.482;2023-11-19T01:47:58;3.47;;;2.23;;
53931;SDS011;39844;52.496;13.482;2023-11-19T01:50:25;3.47;;;2.13;;
53931;SDS011;39844;52.496;13.482;2023-11-19T01:52:54;2.50;;;2.30;;
53931;SDS011;39844;52.496;13.482;2023-11-19T01:55:21;2.53;;;2.33;;
53931;SDS011;39844;52.496;13.482;2023-11-19T01:57:47;3.63;;;2.47;;
53931;SDS011;39844;52.496;13.482;2023-11-19T02:00:13;2.00;;;1.90;;
53931;SDS011;39844;52.496;13.482;2023-11-19T02:02:40;4.53;;;2.27;;
53931;SDS011;39844;52.496;13.482;2023-11-19T02:05:06;2.47;;;2.10;;
53931;SDS011;39844;52.496;13.482;2023-11-19T02:07:32;2.77;;;2.27;;
53931;SDS011;39844;52.496;13.482;2023-11-19T02:09:57;2.30;;;2.20;;
53931;SDS011;39844;52.496;13.482;2023-11-19T02:12:22;2.40;;;2.20;;
53931;SDS011;39844;52.496;13.482;2023-11-19T02:14:48;2.47;;;2.27;;
53931;SDS011;39844;52.496;13.482;2023-11-19T02:17:29;2.03;;;1.87;;
53931;SDS011;39844;52.496;13.482;2023-11-19T02:19:55;2.30;;;2.10;;
53931;SDS011;39844;52.496;13.482;2023-11-19T02:22:20;2.30;;;2.10;;
53931;SDS011;39844;52.496;13.482;2023-11-19T02:24:46;2.83;;;2.27;;
53931;SDS011;39844;52.496;13.482;2023-11-19T02:27:16;1.83;;;1.73;;
53931;SDS011;39844;52.496;13.482;2023-11-19T02:29:53;2.27;;;2.07;;
53931;SDS011;39844;52.496;13.482;2023-11-19T02:32:18;2.83;;;2.20;;
53931;SDS011;39844;52.496;13.482;2023-11-19T02:34:44;2.70;;;2.50;;
53931;SDS011;39844;52.496;13.482;2023-11-19T02:37:09;3.27;;;2.30;;
53931;SDS011;39844;52.496;13.482;2023-11-19T02:39:34;3.20;;;2.33;;
53931;SDS011;39844;52.496;13.482;2023-11-19T02:42:00;2.50;;;2.30;;
53931;SDS011;39844;52.496;13.482;2023-11-19T02:44:25;2.30;;;2.10;;
53931;SDS011;39844;52.496;13.482;2023-11-19T02:46:50;3.33;;;2.63;;
53931;SDS011;39844;52.496;13.482;2023-11-19T02:49:16;2.07;;;1.87;;
53931;SDS011;39844;52.496;13.482;2023-11-19T02:51:41;2.30;;;2.10;;
53931;SDS011;39844;52.496;13.482;2023-11-19T02:54:06;2.63;;;2.30;;
53931;SDS011;39844;52.496;13.482;2023-11-19T02:56:34;2.10;;;2.00;;
53931;SDS011;39844;52.496;13.482;2023-11-19T02:58:59;2.23;;;2.03;;
53931;SDS011;39844;52.496;13.482;2023-11-19T03:01:24;3.27;;;2.20;;
53931;SDS011;39844;52.496;13.482;2023-11-19T03:03:50;1.90;;;1.80;;
53931;SDS011;39844;52.496;13.482;2023-11-19T03:06:15;2.47;;;2.17;;
53931;SDS011;39844;52.496;13.482;2023-11-19T03:08:41;2.33;;;2.13;;
53931;SDS011;39844;52.496;13.482;2023-11-19T03:11:06;2.30;;;2.07;;
53931;SDS011;39844;52.496;13.482;2023-11-19T03:13:32;1.70;;;1.60;;
53931;SDS011;39844;52.496;13.482;2023-11-19T03:15:58;1.90;;;1.80;;
53931;SDS011;39844;52.496;13.482;2023-11-19T03:18:23;1.87;;;1.77;;
53931;SDS011;39844;52.496;13.482;2023-11-19T03:20:48;2.50;;;2.00;;
53931;SDS011;39844;52.496;13.482;2023-11-19T03:23:14;1.70;;;1.50;;
53931;SDS011;39844;52.496;13.482;2023-11-19T03:25:39;1.70;;;1.60;;
53931;SDS011;39844;52.496;13.482;2023-11-19T03:28:04;1.90;;;1.80;;
53931;SDS011;39844;52.496;13.482;2023-11-19T03:30:30;2.33;;;2.13;;
53931;SDS011;39844;52.496;13.482;2023-11-19T03:32:56;1.53;;;1.43;;
53931;SDS011;39844;52.496;13.482;2023-11-19T03:35:22;2.10;;;1.80;;
53931;SDS011;39844;52.496;13.482;2023-11-19T03:37:48;2.00;;;1.87;;
53931;SDS011;39844;52.496;13.482;2023-11-19T03:40:14;3.53;;;1.80;;
53931;SDS011;39844;52.496;13.482;2023-11-19T03:42:39;1.73;;;1.63;;
53931;SDS011;39844;52.496;13.482;2023-11-19T03:45:05;2.20;;;2.10;;
53931;SDS011;39844;52.496;13.482;2023-11-19T03:47:31;2.30;;;2.10;;
53931;SDS011;39844;52.496;13.482;2023-11-19T03:49:57;2.13;;;2.00;;
53931;SDS011;39844;52.496;13.482;2023-11-19T03:52:22;2.10;;;2.00;;
53931;SDS011;39844;52.496;13.482;2023-11-19T03:54:47;2.60;;;1.80;;
53931;SDS011;39844;52.496;13.482;2023-11-19T03:57:13;2.47;;;2.27;;
53931;SDS011;39844;52.496;13.482;2023-11-19T03:59:38;1.67;;;1.57;;
53931;SDS011;39844;52.496;13.482;2023-11-19T04:02:04;1.70;;;1.60;;
53931;SDS011;39844;52.496;13.482;2023-11-19T04:04:30;2.83;;;1.97;;
53931;SDS011;39844;52.496;13.482;2023-11-19T04:06:55;2.77;;;2.03;;
53931;SDS011;39844;52.496;13.482;2023-11-19T04:09:21;3.13;;;2.10;;
53931;SDS011;39844;52.496;13.482;2023-11-19T04:11:46;8.50;;;1.90;;
53931;SDS011;39844;52.496;13.482;2023-11-19T04:14:12;2.73;;;2.00;;
53931;SDS011;39844;52.496;13.482;2023-11-19T04:16:38;2.80;;;2.30;;
53931;SDS011;39844;52.496;13.482;2023-11-19T04:19:04;3.07;;;2.20;;
53931;SDS011;39844;52.496;13.482;2023-11-19T04:21:29;1.83;;;1.73;;
53931;SDS011;39844;52.496;13.482;2023-11-19T04:23:54;1.80;;;1.70;;
53931;SDS011;39844;52.496;13.482;2023-11-19T04:26:20;2.23;;;1.83;;
53931;SDS011;39844;52.496;13.482;2023-11-19T04:28:45;2.30;;;2.10;;
53931;SDS011;39844;52.496;13.482;2023-11-19T04:31:10;2.53;;;2.33;;
53931;SDS011;39844;52.496;13.482;2023-11-19T04:33:36;1.93;;;1.83;;
53931;SDS011;39844;52.496;13.482;2023-11-19T04:36:01;2.90;;;2.33;;
53931;SDS011;39844;52.496;13.482;2023-11-19T04:38:26;4.60;;;2.20;;
53931;SDS011;39844;52.496;13.482;2023-11-19T04:40:52;2.07;;;1.97;;
53931;SDS011;39844;52.496;13.482;2023-11-19T04:43:17;2.43;;;2.10;;
53931;SDS011;39844;52.496;13.482;2023-11-19T04:45:42;2.23;;;2.03;;
53931;SDS011;39844;52.496;13.482;2023-11-19T04:48:08;2.60;;;2.30;;
53931;SDS011;39844;52.496;13.482;2023-11-19T04:50:33;1.87;;;1.77;;
53931;SDS011;39844;52.496;13.482;2023-11-19T04:52:58;2.13;;;1.93;;
53931;SDS011;39844;52.496;13.482;2023-11-19T04:55:23;4.43;;;2.10;;
53931;SDS011;39844;52.496;13.482;2023-11-19T04:57:49;2.03;;;1.90;;
53931;SDS011;39844;52.496;13.482;2023-11-19T05:00:14;1.87;;;1.77;;
53931;SDS011;39844;52.496;13.482;2023-11-19T05:02:39;2.67;;;2.33;;
53931;SDS011;39844;52.496;13.482;2023-11-19T05:05:05;2.47;;;2.27;;
53931;SDS011;39844;52.496;13.482;2023-11-19T05:07:30;2.40;;;2.30;;
53931;SDS011;39844;52.496;13.482;2023-11-19T05:09:56;2.43;;;2.33;;
53931;SDS011;39844;52.496;13.482;2023-11-19T05:12:21;2.30;;;2.20;;
53931;SDS011;39844;52.496;13.482;2023-11-19T05:14:46;2.80;;;2.13;;
53931;SDS011;39844;52.496;13.482;2023-11-19T05:17:12;1.77;;;1.67;;
53931;SDS011;39844;52.496;13.482;2023-11-19T05:19:37;2.73;;;2.30;;
53931;SDS011;39844;52.496;13.482;2023-11-19T05:22:02;3.60;;;2.30;;
53931;SDS011;39844;52.496;13.482;2023-11-19T05:24:27;2.10;;;2.00;;
53931;SDS011;39844;52.496;13.482;2023-11-19T05:26:53;2.37;;;2.27;;
53931;SDS011;39844;52.496;13.482;2023-11-19T05:29:18;2.00;;;1.90;;
53931;SDS011;39844;52.496;13.482;2023-11-19T05:31:43;2.73;;;2.53;;
53931;SDS011;39844;52.496;13.482;2023-11-19T05:34:09;2.47;;;2.00;;
53931;SDS011;39844;52.496;13.482;2023-11-19T05:36:34;2.33;;;2.17;;
53931;SDS011;39844;52.496;13.482;2023-11-19T05:38:59;5.27;;;2.20;;
53931;SDS011;39844;52.496;13.482;2023-11-19T05:41:24;2.80;;;2.10;;
53931;SDS011;39844;52.496;13.482;2023-11-19T05:43:50;2.43;;;2.23;;
53931;SDS011;39844;52.496;13.482;2023-11-19T05:46:15;2.63;;;2.30;;
53931;SDS011;39844;52.496;13.482;2023-11-19T05:48:40;2.10;;;2.00;;
53931;SDS011;39844;52.496;13.482;2023-11-19T05:51:06;2.33;;;1.97;;
53931;SDS011;39844;52.496;13.482;2023-11-19T05:53:31;2.17;;;2.07;;
53931;SDS011;39844;52.496;13.482;2023-11-19T05:55:57;2.13;;;1.97;;
53931;SDS011;39844;52.496;13.482;2023-11-19T05:58:23;3.30;;;1.93;;
53931;SDS011;39844;52.496;13.482;2023-11-19T06:00:52;2.53;;;2.30;;
53931;SDS011;39844;52.496;13.482;2023-11-19T06:03:17;1.70;;;1.60;;
53931;SDS011;39844;52.496;13.482;2023-11-19T06:05:46;2.57;;;1.87;;
53931;SDS011;39844;52.496;13.482;2023-11-19T06:08:11;1.97;;;1.83;;
53931;SDS011;39844;52.496;13.482;2023-11-19T06:10:40;2.17;;;2.07;;
53931;SDS011;39844;52.496;13.482;2023-11-19T06:13:05;2.23;;;2.03;;
53931;SDS011;39844;52.496;13.482;2023-11-19T06:15:30;2.10;;;2.00;;
53931;SDS011;39844;52.496;13.482;2023-11-19T06:17:56;2.30;;;2.10;;
53931;SDS011;39844;52.496;13.482;2023-11-19T06:20:21;2.20;;;2.00;;
53931;SDS011;39844;52.496;13.482;2023-11-19T06:22:46;1.80;;;1.70;;
53931;SDS011;39844;52.496;13.482;2023-11-19T06:25:12;2.30;;;2.10;;
53931;SDS011;39844;52.496;13.482;2023-11-19T06:27:37;1.97;;;1.87;;
53931;SDS011;39844;52.496;13.482;2023-11-19T06:30:03;1.60;;;1.50;;
53931;SDS011;39844;52.496;13.482;2023-11-19T06:32:28;2.10;;;1.97;;
53931;SDS011;39844;52.496;13.482;2023-11-19T06:34:54;2.17;;;2.00;;
53931;SDS011;39844;52.496;13.482;2023-11-19T06:37:19;1.93;;;1.83;;
53931;SDS011;39844;52.496;13.482;2023-11-19T06:39:44;2.03;;;1.87;;
53931;SDS011;39844;52.496;13.482;2023-11-19T06:42:10;2.03;;;1.87;;
53931;SDS011;39844;52.496;13.482;2023-11-19T06:44:35;2.17;;;1.73;;
53931;SDS011;39844;52.496;13.482;2023-11-19T06:47:00;2.00;;;1.90;;
53931;SDS011;39844;52.496;13.482;2023-11-19T06:49:25;1.77;;;1.53;;
53931;SDS011;39844;52.496;13.482;2023-11-19T06:51:51;2.67;;;1.93;;
53931;SDS011;39844;52.496;13.482;2023-11-19T06:54:16;1.47;;;1.43;;
53931;SDS011;39844;52.496;13.482;2023-11-19T06:56:41;1.80;;;1.63;;
53931;SDS011;39844;52.496;13.482;2023-11-19T06:59:07;1.60;;;1.50;;
53931;SDS011;39844;52.496;13.482;2023-11-19T07:01:35;1.60;;;1.50;;
53931;SDS011;39844;52.496;13.482;2023-11-19T07:04:01;1.50;;;1.40;;
53931;SDS011;39844;52.496;13.482;2023-11-19T07:06:27;2.17;;;2.07;;
53931;SDS011;39844;52.496;13.482;2023-11-19T07:08:52;2.23;;;2.13;;
53931;SDS011;39844;52.496;13.482;2023-11-19T07:11:18;3.30;;;2.30;;
53931;SDS011;39844;52.496;13.482;2023-11-19T07:13:43;1.90;;;1.80;;
53931;SDS011;39844;52.496;13.482;2023-11-19T07:16:08;1.80;;;1.70;;
53931;SDS011;39844;52.496;13.482;2023-11-19T07:18:34;2.10;;;2.00;;
53931;SDS011;39844;52.496;13.482;2023-11-19T07:20:59;1.50;;;1.50;;
53931;SDS011;39844;52.496;13.482;2023-11-19T07:23:24;1.70;;;1.60;;
53931;SDS011;39844;52.496;13.482;2023-11-19T07:25:49;1.60;;;1.60;;
53931;SDS011;39844;52.496;13.482;2023-11-19T07:28:15;1.40;;;1.30;;
53931;SDS011;39844;52.496;13.482;2023-11-19T07:30:40;1.90;;;1.63;;
53931;SDS011;39844;52.496;13.482;2023-11-19T07:33:05;1.47;;;1.37;;
53931;SDS011;39844;52.496;13.482;2023-11-19T07:35:31;1.80;;;1.70;;
53931;SDS011;39844;52.496;13.482;2023-11-19T07:37:57;1.70;;;1.60;;
53931;SDS011;39844;52.496;13.482;2023-11-19T07:40:23;1.53;;;1.53;;
53931;SDS011;39844;52.496;13.482;2023-11-19T07:42:48;1.63;;;1.53;;
53931;SDS011;39844;52.496;13.482;2023-11-19T07:45:14;1.50;;;1.50;;
53931;SDS011;39844;52.496;13.482;2023-11-19T07:47:39;1.60;;;1.50;;
53931;SDS011;39844;52.496;13.482;2023-11-19T07:50:04;1.43;;;1.43;;
53931;SDS011;39844;52.496;13.482;2023-11-19T07:52:30;1.50;;;1.40;;
53931;SDS011;39844;52.496;13.482;2023-11-19T07:54:55;1.60;;;1.50;;
53931;SDS011;39844;52.496;13.482;2023-11-19T07:57:21;1.87;;;1.77;;
53931;SDS011;39844;52.496;13.482;2023-11-19T07:59:46;1.63;;;1.53;;
53931;SDS011;39844;52.496;13.482;2023-11-19T08:02:11;1.70;;;1.60;;
53931;SDS011;39844;52.496;13.482;2023-11-19T08:04:37;1.83;;;1.73;;
53931;SDS011;39844;52.496;13.482;2023-11-19T08:07:02;1.50;;;1.40;;
53931;SDS011;39844;52.496;13.482;2023-11-19T08:09:27;1.40;;;1.40;;
53931;SDS011;39844;52.496;13.482;2023-11-19T08:11:53;1.70;;;1.60;;
53931;SDS011;39844;52.496;13.482;2023-11-19T08:14:18;1.77;;;1.67;;
53931;SDS011;39844;52.496;13.482;2023-11-19T08:16:43;1.50;;;1.40;;
53931;SDS011;39844;52.496;13.482;2023-11-19T08:19:09;1.73;;;1.63;;
53931;SDS011;39844;52.496;13.482;2023-11-19T08:21:34;1.50;;;1.40;;
53931;SDS011;39844;52.496;13.482;2023-11-19T08:24:00;1.70;;;1.60;;
53931;SDS011;39844;52.496;13.482;2023-11-19T08:26:26;2.33;;;1.60;;
53931;SDS011;39844;52.496;13.482;2023-11-19T08:28:51;1.50;;;1.40;;
53931;SDS011;39844;52.496;13.482;2023-11-19T08:31:16;1.30;;;1.30;;
53931;SDS011;39844;52.496;13.482;2023-11-19T08:33:42;1.87;;;1.63;;
53931;SDS011;39844;52.496;13.482;2023-11-19T08:36:07;1.30;;;1.30;;
53931;SDS011;39844;52.496;13.482;2023-11-19T08:38:33;1.27;;;1.27;;
53931;SDS011;39844;52.496;13.482;2023-11-19T08:40:58;1.17;;;1.17;;
53931;SDS011;39844;52.496;13.482;2023-11-19T08:43:23;1.80;;;1.63;;
53931;SDS011;39844;52.496;13.482;2023-11-19T08:45:48;1.80;;;1.70;;
53931;SDS011;39844;52.496;13.482;2023-11-19T08:48:14;1.50;;;1.50;;
53931;SDS011;39844;52.496;13.482;2023-11-19T08:50:39;1.63;;;1.53;;
53931;SDS011;39844;52.496;13.482;2023-11-19T08:53:04;1.40;;;1.37;;
53931;SDS011;39844;52.496;13.482;2023-11-19T08:55:30;1.77;;;1.67;;
53931;SDS011;39844;52.496;13.482;2023-11-19T08:57:55;2.07;;;1.80;;
53931;SDS011;39844;52.496;13.482;2023-11-19T09:00:20;2.10;;;2.00;;
53931;SDS011;39844;52.496;13.482;2023-11-19T09:02:45;1.80;;;1.70;;
53931;SDS011;39844;52.496;13.482;2023-11-19T09:05:11;1.73;;;1.63;;
53931;SDS011;39844;52.496;13.482;2023-11-19T09:07:36;1.33;;;1.33;;
53931;SDS011;39844;52.496;13.482;2023-11-19T09:10:04;1.80;;;1.70;;
53931;SDS011;39844;52.496;13.482;2023-11-19T09:12:29;10.40;;;6.47;;
53931;SDS011;39844;52.496;13.482;2023-11-19T09:14:54;2.57;;;2.23;;
53931;SDS011;39844;52.496;13.482;2023-11-19T09:17:20;2.70;;;2.20;;
53931;SDS011;39844;52.496;13.482;2023-11-19T09:19:45;1.90;;;1.80;;
53931;SDS011;39844;52.496;13.482;2023-11-19T09:22:10;2.30;;;1.90;;
53931;SDS011;39844;52.496;13.482;2023-11-19T09:24:36;2.90;;;2.30;;
53931;SDS011;39844;52.496;13.482;2023-11-19T09:27:01;3.47;;;1.83;;
53931;SDS011;39844;52.496;13.482;2023-11-19T09:29:26;2.20;;;2.10;;
53931;SDS011;39844;52.496;13.482;2023-11-19T09:31:51;2.83;;;2.53;;
53931;SDS011;39844;52.496;13.482;2023-11-19T09:34:17;4.23;;;2.30;;
53931;SDS011;39844;52.496;13.482;2023-11-19T09:36:42;1.70;;;1.60;;
53931;SDS011;39844;52.496;13.482;2023-11-19T09:39:07;1.80;;;1.70;;
53931;SDS011;39844;52.496;13.482;2023-11-19T09:41:33;1.83;;;1.73;;
53931;SDS011;39844;52.496;13.482;2023-11-19T09:43:58;1.60;;;1.50;;
53931;SDS011;39844;52.496;13.482;2023-11-19T09:46:23;1.53;;;1.43;;
53931;SDS011;39844;52.496;13.482;2023-11-19T09:48:52;1.80;;;1.70;;
53931;SDS011;39844;52.496;13.482;2023-11-19T09:51:18;2.00;;;1.70;;
53931;SDS011;39844;52.496;13.482;2023-11-19T09:53:43;1.70;;;1.60;;
53931;SDS011;39844;52.496;13.482;2023-11-19T09:56:09;2.40;;;1.70;;
53931;SDS011;39844;52.496;13.482;2023-11-19T09:58:36;1.27;;;1.27;;
53931;SDS011;39844;52.496;13.482;2023-11-19T10:01:01;1.30;;;1.30;;
53931;SDS011;39844;52.496;13.482;2023-11-19T10:03:27;1.30;;;1.23;;
53931;SDS011;39844;52.496;13.482;2023-11-19T10:05:57;1.50;;;1.40;;
53931;SDS011;39844;52.496;13.482;2023-11-19T10:08:22;3.07;;;1.73;;
53931;SDS011;39844;52.496;13.482;2023-11-19T10:10:48;0.90;;;0.90;;
53931;SDS011;39844;52.496;13.482;2023-11-19T10:13:13;1.37;;;1.33;;
53931;SDS011;39844;52.496;13.482;2023-11-19T10:15:38;2.27;;;1.30;;
53931;SDS011;39844;52.496;13.482;2023-11-19T10:18:04;1.53;;;1.17;;
53931;SDS011;39844;52.496;13.482;2023-11-19T10:20:34;1.40;;;1.30;;
53931;SDS011;39844;52.496;13.482;2023-11-19T10:23:05;0.90;;;0.90;;
53931;SDS011;39844;52.496;13.482;2023-11-19T10:25:30;1.20;;;1.20;;
53931;SDS011;39844;52.496;13.482;2023-11-19T10:27:58;1.70;;;1.30;;
53931;SDS011;39844;52.496;13.482;2023-11-19T10:30:24;2.30;;;1.60;;
53931;SDS011;39844;52.496;13.482;2023-11-19T10:33:10;1.87;;;1.20;;
53931;SDS011;39844;52.496;13.482;2023-11-19T10:35:51;1.23;;;1.10;;
53931;SDS011;39844;52.496;13.482;2023-11-19T10:38:18;1.50;;;1.40;;
53931;SDS011;39844;52.496;13.482;2023-11-19T10:40:44;1.70;;;1.10;;
53931;SDS011;39844;52.496;13.482;2023-11-19T10:43:10;2.27;;;1.17;;
53931;SDS011;39844;52.496;13.482;2023-11-19T10:45:36;1.47;;;1.23;;
53931;SDS011;39844;52.496;13.482;2023-11-19T10:48:02;1.90;;;1.20;;
53931;SDS011;39844;52.496;13.482;2023-11-19T10:50:28;3.07;;;1.23;;
53931;SDS011;39844;52.496;13.482;2023-11-19T10:52:55;1.93;;;1.70;;
53931;SDS011;39844;52.496;13.482;2023-11-19T10:55:22;1.70;;;1.60;;
53931;SDS011;39844;52.496;13.482;2023-11-19T10:58:01;3.10;;;1.40;;
53931;SDS011;39844;52.496;13.482;2023-11-19T11:00:29;2.83;;;1.50;;
53931;SDS011;39844;52.496;13.482;2023-11-19T11:02:56;3.13;;;1.57;;
53931;SDS011;39844;52.496;13.482;2023-11-19T11:05:26;4.67;;;1.80;;
53931;SDS011;39844;52.496;13.482;2023-11-19T11:07:51;1.33;;;1.30;;
53931;SDS011;39844;52.496;13.482;2023-11-19T11:10:20;2.87;;;1.70;;
53931;SDS011;39844;52.496;13.482;2023-11-19T11:12:49;2.17;;;1.73;;
53931;SDS011;39844;52.496;13.482;2023-11-19T11:15:15;1.27;;;1.23;;
53931;SDS011;39844;52.496;13.482;2023-11-19T11:17:44;1.73;;;1.40;;
53931;SDS011;39844;52.496;13.482;2023-11-19T11:20:11;1.73;;;1.50;;
53931;SDS011;39844;52.496;13.482;2023-11-19T11:22:59;3.33;;;1.90;;
53931;SDS011;39844;52.496;13.482;2023-11-19T11:25:31;3.70;;;1.83;;
53931;SDS011;39844;52.496;13.482;2023-11-19T11:36:13;1.20;;;1.10;;
53931;SDS011;39844;52.496;13.482;2023-11-19T11:38:40;1.37;;;1.33;;
53931;SDS011;39844;52.496;13.482;2023-11-19T11:41:15;4.60;;;1.30;;
53931;SDS011;39844;52.496;13.482;2023-11-19T11:43:46;4.40;;;1.90;;
53931;SDS011;39844;52.496;13.482;2023-11-19T11:47:00;3.33;;;1.57;;
53931;SDS011;39844;52.496;13.482;2023-11-19T11:49:06;3.57;;;1.60;;
53931;SDS011;39844;52.496;13.482;2023-11-19T11:54:10;8.90;;;2.07;;
53931;SDS011;39844;52.496;13.482;2023-11-19T11:59:36;4.07;;;1.77;;
53931;SDS011;39844;52.496;13.482;2023-11-19T12:02:11;3.00;;;1.30;;
53931;SDS011;39844;52.496;13.482;2023-11-19T12:04:39;4.70;;;1.40;;
53931;SDS011;39844;52.496;13.482;2023-11-19T12:07:05;2.50;;;1.47;;
53931;SDS011;39844;52.496;13.482;2023-11-19T12:09:38;12.27;;;1.80;;
53931;SDS011;39844;52.496;13.482;2023-11-19T12:17:42;3.23;;;1.73;;
53931;SDS011;39844;52.496;13.482;2023-11-19T12:20:11;4.83;;;1.70;;
53931;SDS011;39844;52.496;13.482;2023-11-19T12:22:37;2.27;;;1.60;;
53931;SDS011;39844;52.496;13.482;2023-11-19T12:25:04;5.63;;;1.80;;
53931;SDS011;39844;52.496;13.482;2023-11-19T12:27:31;6.10;;;2.03;;
53931;SDS011;39844;52.496;13.482;2023-11-19T12:29:57;6.60;;;1.73;;
53931;SDS011;39844;52.496;13.482;2023-11-19T12:32:22;10.30;;;2.07;;
53931;SDS011;39844;52.496;13.482;2023-11-19T12:34:47;4.80;;;1.50;;
53931;SDS011;39844;52.496;13.482;2023-11-19T12:37:13;3.47;;;1.60;;
53931;SDS011;39844;52.496;13.482;2023-11-19T12:39:38;6.43;;;1.93;;
53931;SDS011;39844;52.496;13.482;2023-11-19T12:42:04;3.70;;;1.63;;
53931;SDS011;39844;52.496;13.482;2023-11-19T12:44:29;5.13;;;1.80;;
53931;SDS011;39844;52.496;13.482;2023-11-19T12:47:07;10.50;;;2.20;;
53931;SDS011;39844;52.496;13.482;2023-11-19T12:49:33;6.63;;;2.07;;
53931;SDS011;39844;52.496;13.482;2023-11-19T12:51:58;8.40;;;1.97;;
53931;SDS011;39844;52.496;13.482;2023-11-19T12:54:34;5.57;;;2.10;;
53931;SDS011;39844;52.496;13.482;2023-11-19T12:57:02;7.07;;;2.30;;
53931;SDS011;39844;52.496;13.482;2023-11-19T12:59:28;3.30;;;1.90;;
53931;SDS011;39844;52.496;13.482;2023-11-19T13:04:28;1.53;;;1.43;;
53931;SDS011;39844;52.496;13.482;2023-11-19T13:06:54;3.80;;;1.60;;
53931;SDS011;39844;52.496;13.482;2023-11-19T13:09:23;8.23;;;1.93;;
53931;SDS011;39844;52.496;13.482;2023-11-19T13:11:49;2.67;;;1.77;;
53931;SDS011;39844;52.496;13.482;2023-11-19T13:14:14;4.47;;;1.60;;
53931;SDS011;39844;52.496;13.482;2023-11-19T13:16:39;3.30;;;1.43;;
53931;SDS011;39844;52.496;13.482;2023-11-19T13:19:05;8.23;;;1.77;;
53931;SDS011;39844;52.496;13.482;2023-11-19T13:21:31;6.60;;;1.70;;
53931;SDS011;39844;52.496;13.482;2023-11-19T13:23:56;3.97;;;1.83;;
53931;SDS011;39844;52.496;13.482;2023-11-19T13:26:22;7.97;;;1.80;;
53931;SDS011;39844;52.496;13.482;2023-11-19T13:28:47;8.13;;;1.93;;
53931;SDS011;39844;52.496;13.482;2023-11-19T13:31:13;5.93;;;2.10;;
53931;SDS011;39844;52.496;13.482;2023-11-19T13:33:38;8.83;;;2.30;;
53931;SDS011;39844;52.496;13.482;2023-11-19T13:36:04;7.03;;;2.37;;
53931;SDS011;39844;52.496;13.482;2023-11-19T13:38:29;5.53;;;2.00;;
53931;SDS011;39844;52.496;13.482;2023-11-19T13:40:55;5.73;;;1.70;;
53931;SDS011;39844;52.496;13.482;2023-11-19T13:43:20;5.07;;;2.07;;
53931;SDS011;39844;52.496;13.482;2023-11-19T13:45:45;5.50;;;2.00;;
53931;SDS011;39844;52.496;13.482;2023-11-19T13:48:10;2.93;;;1.83;;
53931;SDS011;39844;52.496;13.482;2023-11-19T13:50:36;5.53;;;2.23;;
53931;SDS011;39844;52.496;13.482;2023-11-19T13:53:01;7.57;;;1.93;;
53931;SDS011;39844;52.496;13.482;2023-11-19T13:55:26;6.63;;;2.03;;
53931;SDS011;39844;52.496;13.482;2023-11-19T13:57:52;6.70;;;1.90;;
53931;SDS011;39844;52.496;13.482;2023-11-19T14:00:17;4.83;;;1.90;;
53931;SDS011;39844;52.496;13.482;2023-11-19T14:02:42;10.03;;;2.47;;
53931;SDS011;39844;52.496;13.482;2023-11-19T14:05:08;4.87;;;1.97;;
53931;SDS011;39844;52.496;13.482;2023-11-19T14:07:34;9.70;;;2.53;;
53931;SDS011;39844;52.496;13.482;2023-11-19T14:10:00;5.90;;;2.23;;
53931;SDS011;39844;52.496;13.482;2023-11-19T14:12:25;4.93;;;2.70;;
53931;SDS011;39844;52.496;13.482;2023-11-19T14:14:51;7.23;;;2.23;;
53931;SDS011;39844;52.496;13.482;2023-11-19T14:17:16;12.60;;;2.73;;
53931;SDS011;39844;52.496;13.482;2023-11-19T14:19:42;6.47;;;1.93;;
53931;SDS011;39844;52.496;13.482;2023-11-19T14:22:07;8.20;;;1.97;;
53931;SDS011;39844;52.496;13.482;2023-11-19T14:24:33;5.27;;;2.17;;
53931;SDS011;39844;52.496;13.482;2023-11-19T14:26:58;4.07;;;2.23;;
53931;SDS011;39844;52.496;13.482;2023-11-19T14:29:23;10.03;;;2.10;;
53931;SDS011;39844;52.496;13.482;2023-11-19T14:31:49;8.70;;;2.30;;
53931;SDS011;39844;52.496;13.482;2023-11-19T14:34:14;9.67;;;2.30;;
53931;SDS011;39844;52.496;13.482;2023-11-19T14:36:40;22.07;;;6.13;;
53931;SDS011;39844;52.496;13.482;2023-11-19T14:39:05;11.00;;;2.47;;
53931;SDS011;39844;52.496;13.482;2023-11-19T14:41:30;9.23;;;3.00;;
53931;SDS011;39844;52.496;13.482;2023-11-19T14:43:55;10.50;;;3.50;;
53931;SDS011;39844;52.496;13.482;2023-11-19T14:46:21;7.60;;;3.10;;
53931;SDS011;39844;52.496;13.482;2023-11-19T14:48:46;8.87;;;2.37;;